sensor_id;sensor_type;location;lat;lon;timestamp;P1;durP1;ratioP1;P2;durP2;ratioP2
44147;SDS011;29810;55.848;37.368;2022-12-10T00:01:10;34.58;;;17.48;;
44147;SDS011;29810;55.848;37.368;2022-12-10T00:04:16;30.85;;;16.12;;
44147;SDS011;29810;55.848;37.368;2022-12-10T00:07:19;30.20;;;16.48;;
44147;SDS011;29810;55.848;37.368;2022-12-10T00:10:20;36.35;;;17.40;;
44147;SDS011;29810;55.848;37.368;2022-12-10T00:13:22;29.17;;;16.42;;
44147;SDS011;29810;55.848;37.368;2022-12-10T00:16:25;31.08;;;16.87;;
44147;SDS011;29810;55.848;37.368;2022-12-10T00:19:27;32.83;;;16.75;;
44147;SDS011;29810;55.848;37.368;2022-12-10T00:22:29;30.02;;;16.00;;
44147;SDS011;29810;55.848;37.368;2022-12-10T00:25:34;28.38;;;16.40;;
44147;SDS011;29810;55.848;37.368;2022-12-10T00:28:35;26.83;;;15.52;;
44147;SDS011;29810;55.848;37.368;2022-12-10T00:31:37;30.52;;;15.63;;
44147;SDS011;29810;55.848;37.368;2022-12-10T00:34:40;27.98;;;15.75;;
44147;SDS011;29810;55.848;37.368;2022-12-10T00:37:42;28.45;;;15.05;;
44147;SDS011;29810;55.848;37.368;2022-12-10T00:40:44;29.52;;;14.75;;
44147;SDS011;29810;55.848;37.368;2022-12-10T00:43:45;28.73;;;15.63;;
44147;SDS011;29810;55.848;37.368;2022-12-10T00:46:47;27.95;;;14.75;;
44147;SDS011;29810;55.848;37.368;2022-12-10T00:49:49;28.75;;;15.43;;
44147;SDS011;29810;55.848;37.368;2022-12-10T00:52:50;29.63;;;15.77;;
44147;SDS011;29810;55.848;37.368;2022-12-10T00:55:52;26.90;;;15.20;;
44147;SDS011;29810;55.848;37.368;2022-12-10T00:58:55;29.85;;;15.27;;
44147;SDS011;29810;55.848;37.368;2022-12-10T01:01:57;27.37;;;15.68;;
44147;SDS011;29810;55.848;37.368;2022-12-10T01:04:59;28.45;;;15.80;;
44147;SDS011;29810;55.848;37.368;2022-12-10T01:08:00;29.98;;;15.75;;
44147;SDS011;29810;55.848;37.368;2022-12-10T01:11:02;29.77;;;16.00;;
44147;SDS011;29810;55.848;37.368;2022-12-10T01:14:04;30.20;;;16.00;;
44147;SDS011;29810;55.848;37.368;2022-12-10T01:17:07;27.33;;;14.85;;
44147;SDS011;29810;55.848;37.368;2022-12-10T01:20:09;28.02;;;16.23;;
44147;SDS011;29810;55.848;37.368;2022-12-10T01:23:11;28.30;;;16.27;;
44147;SDS011;29810;55.848;37.368;2022-12-10T01:26:13;30.80;;;16.12;;
44147;SDS011;29810;55.848;37.368;2022-12-10T01:29:18;28.17;;;15.95;;
44147;SDS011;29810;55.848;37.368;2022-12-10T01:32:19;30.00;;;16.15;;
44147;SDS011;29810;55.848;37.368;2022-12-10T01:35:21;30.90;;;15.88;;
44147;SDS011;29810;55.848;37.368;2022-12-10T01:38:23;34.97;;;16.60;;
44147;SDS011;29810;55.848;37.368;2022-12-10T01:41:26;28.83;;;16.12;;
44147;SDS011;29810;55.848;37.368;2022-12-10T01:47:44;29.02;;;15.70;;
44147;SDS011;29810;55.848;37.368;2022-12-10T01:50:45;30.33;;;15.65;;
44147;SDS011;29810;55.848;37.368;2022-12-10T01:53:47;31.95;;;16.45;;
44147;SDS011;29810;55.848;37.368;2022-12-10T01:56:59;37.75;;;17.62;;
44147;SDS011;29810;55.848;37.368;2022-12-10T02:00:09;29.48;;;15.38;;
44147;SDS011;29810;55.848;37.368;2022-12-10T02:03:18;29.30;;;15.38;;
44147;SDS011;29810;55.848;37.368;2022-12-10T02:06:48;34.42;;;17.12;;
44147;SDS011;29810;55.848;37.368;2022-12-10T02:13:23;30.95;;;15.93;;
44147;SDS011;29810;55.848;37.368;2022-12-10T02:16:37;30.62;;;16.77;;
44147;SDS011;29810;55.848;37.368;2022-12-10T02:20:04;32.45;;;15.95;;
44147;SDS011;29810;55.848;37.368;2022-12-10T02:23:13;32.70;;;15.70;;
44147;SDS011;29810;55.848;37.368;2022-12-10T02:26:32;33.15;;;15.38;;
44147;SDS011;29810;55.848;37.368;2022-12-10T02:29:59;32.15;;;16.23;;
44147;SDS011;29810;55.848;37.368;2022-12-10T02:33:04;30.40;;;15.65;;
44147;SDS011;29810;55.848;37.368;2022-12-10T02:36:09;30.20;;;15.68;;
44147;SDS011;29810;55.848;37.368;2022-12-10T02:39:14;29.40;;;15.82;;
44147;SDS011;29810;55.848;37.368;2022-12-10T02:42:24;35.13;;;16.80;;
44147;SDS011;29810;55.848;37.368;2022-12-10T02:45:29;29.63;;;15.02;;
44147;SDS011;29810;55.848;37.368;2022-12-10T02:48:33;33.53;;;15.57;;
44147;SDS011;29810;55.848;37.368;2022-12-10T02:51:36;33.55;;;15.30;;
44147;SDS011;29810;55.848;37.368;2022-12-10T02:57:55;33.95;;;15.40;;
44147;SDS011;29810;55.848;37.368;2022-12-10T03:04:28;32.78;;;15.52;;
44147;SDS011;29810;55.848;37.368;2022-12-10T03:13:58;29.87;;;15.02;;
44147;SDS011;29810;55.848;37.368;2022-12-10T03:17:03;32.75;;;15.25;;
44147;SDS011;29810;55.848;37.368;2022-12-10T03:20:08;29.75;;;15.10;;
44147;SDS011;29810;55.848;37.368;2022-12-10T03:23:15;33.90;;;15.15;;
44147;SDS011;29810;55.848;37.368;2022-12-10T03:26:19;31.12;;;15.30;;
44147;SDS011;29810;55.848;37.368;2022-12-10T03:29:28;30.25;;;15.70;;
44147;SDS011;29810;55.848;37.368;2022-12-10T03:32:40;29.45;;;14.80;;
44147;SDS011;29810;55.848;37.368;2022-12-10T03:35:41;28.77;;;14.57;;
44147;SDS011;29810;55.848;37.368;2022-12-10T03:38:44;31.67;;;15.15;;
44147;SDS011;29810;55.848;37.368;2022-12-10T03:41:45;31.58;;;16.00;;
44147;SDS011;29810;55.848;37.368;2022-12-10T03:44:48;31.15;;;15.55;;
44147;SDS011;29810;55.848;37.368;2022-12-10T03:47:51;32.38;;;15.38;;
44147;SDS011;29810;55.848;37.368;2022-12-10T03:50:53;28.45;;;15.23;;
44147;SDS011;29810;55.848;37.368;2022-12-10T03:53:55;29.48;;;14.95;;
44147;SDS011;29810;55.848;37.368;2022-12-10T03:56:56;31.30;;;16.15;;
44147;SDS011;29810;55.848;37.368;2022-12-10T03:59:58;34.40;;;16.23;;
44147;SDS011;29810;55.848;37.368;2022-12-10T04:03:00;29.30;;;15.90;;
44147;SDS011;29810;55.848;37.368;2022-12-10T04:06:09;30.95;;;14.87;;
44147;SDS011;29810;55.848;37.368;2022-12-10T04:09:13;27.77;;;14.85;;
44147;SDS011;29810;55.848;37.368;2022-12-10T04:12:16;33.53;;;16.23;;
44147;SDS011;29810;55.848;37.368;2022-12-10T04:15:18;31.60;;;15.20;;
44147;SDS011;29810;55.848;37.368;2022-12-10T04:18:38;31.98;;;15.50;;
44147;SDS011;29810;55.848;37.368;2022-12-10T04:21:40;32.08;;;15.00;;
44147;SDS011;29810;55.848;37.368;2022-12-10T04:25:02;31.25;;;16.12;;
44147;SDS011;29810;55.848;37.368;2022-12-10T04:28:22;29.00;;;15.10;;
44147;SDS011;29810;55.848;37.368;2022-12-10T04:31:24;33.83;;;16.15;;
44147;SDS011;29810;55.848;37.368;2022-12-10T04:34:25;36.80;;;16.25;;
44147;SDS011;29810;55.848;37.368;2022-12-10T04:37:27;30.15;;;15.63;;
44147;SDS011;29810;55.848;37.368;2022-12-10T04:40:29;32.22;;;16.40;;
44147;SDS011;29810;55.848;37.368;2022-12-10T04:43:31;30.65;;;15.40;;
44147;SDS011;29810;55.848;37.368;2022-12-10T04:46:32;29.25;;;15.85;;
44147;SDS011;29810;55.848;37.368;2022-12-10T04:49:35;33.03;;;16.23;;
44147;SDS011;29810;55.848;37.368;2022-12-10T04:52:37;30.25;;;16.23;;
44147;SDS011;29810;55.848;37.368;2022-12-10T04:55:38;34.72;;;17.55;;
44147;SDS011;29810;55.848;37.368;2022-12-10T04:58:40;39.25;;;16.70;;
44147;SDS011;29810;55.848;37.368;2022-12-10T05:01:41;34.95;;;16.98;;
44147;SDS011;29810;55.848;37.368;2022-12-10T05:04:43;38.15;;;17.62;;
44147;SDS011;29810;55.848;37.368;2022-12-10T05:07:45;38.75;;;17.40;;
44147;SDS011;29810;55.848;37.368;2022-12-10T05:10:46;36.17;;;18.48;;
44147;SDS011;29810;55.848;37.368;2022-12-10T05:13:48;37.75;;;18.75;;
44147;SDS011;29810;55.848;37.368;2022-12-10T05:16:50;36.90;;;18.10;;
44147;SDS011;29810;55.848;37.368;2022-12-10T05:19:52;36.30;;;18.85;;
44147;SDS011;29810;55.848;37.368;2022-12-10T05:22:55;36.15;;;18.85;;
44147;SDS011;29810;55.848;37.368;2022-12-10T05:26:16;39.20;;;18.20;;
44147;SDS011;29810;55.848;37.368;2022-12-10T05:29:18;36.80;;;18.67;;
44147;SDS011;29810;55.848;37.368;2022-12-10T05:32:20;46.75;;;19.30;;
44147;SDS011;29810;55.848;37.368;2022-12-10T05:35:31;37.90;;;19.23;;
44147;SDS011;29810;55.848;37.368;2022-12-10T05:38:34;41.20;;;18.70;;
44147;SDS011;29810;55.848;37.368;2022-12-10T05:41:36;41.90;;;19.25;;
44147;SDS011;29810;55.848;37.368;2022-12-10T05:44:41;44.15;;;20.62;;
44147;SDS011;29810;55.848;37.368;2022-12-10T05:47:42;42.70;;;20.60;;
44147;SDS011;29810;55.848;37.368;2022-12-10T05:50:44;44.47;;;21.33;;
44147;SDS011;29810;55.848;37.368;2022-12-10T05:53:46;48.50;;;22.15;;
44147;SDS011;29810;55.848;37.368;2022-12-10T05:56:48;50.83;;;22.45;;
44147;SDS011;29810;55.848;37.368;2022-12-10T05:59:52;53.40;;;22.10;;
44147;SDS011;29810;55.848;37.368;2022-12-10T06:02:54;59.47;;;24.58;;
44147;SDS011;29810;55.848;37.368;2022-12-10T06:05:56;55.75;;;25.23;;
44147;SDS011;29810;55.848;37.368;2022-12-10T06:08:57;64.80;;;25.73;;
44147;SDS011;29810;55.848;37.368;2022-12-10T06:11:59;55.95;;;26.50;;
44147;SDS011;29810;55.848;37.368;2022-12-10T06:15:01;58.58;;;25.12;;
44147;SDS011;29810;55.848;37.368;2022-12-10T06:18:04;58.70;;;25.70;;
44147;SDS011;29810;55.848;37.368;2022-12-10T06:21:07;58.75;;;26.77;;
44147;SDS011;29810;55.848;37.368;2022-12-10T06:24:10;54.97;;;27.15;;
44147;SDS011;29810;55.848;37.368;2022-12-10T06:27:14;55.78;;;25.77;;
44147;SDS011;29810;55.848;37.368;2022-12-10T06:30:16;57.62;;;26.12;;
44147;SDS011;29810;55.848;37.368;2022-12-10T06:33:18;67.62;;;28.87;;
44147;SDS011;29810;55.848;37.368;2022-12-10T06:36:20;68.97;;;32.03;;
44147;SDS011;29810;55.848;37.368;2022-12-10T06:39:22;72.30;;;35.92;;
44147;SDS011;29810;55.848;37.368;2022-12-10T06:42:24;71.28;;;35.58;;
44147;SDS011;29810;55.848;37.368;2022-12-10T06:45:25;69.28;;;35.25;;
44147;SDS011;29810;55.848;37.368;2022-12-10T06:48:27;68.57;;;33.17;;
44147;SDS011;29810;55.848;37.368;2022-12-10T06:51:28;58.15;;;28.62;;
44147;SDS011;29810;55.848;37.368;2022-12-10T06:54:30;64.22;;;30.05;;
44147;SDS011;29810;55.848;37.368;2022-12-10T06:57:32;64.47;;;31.77;;
44147;SDS011;29810;55.848;37.368;2022-12-10T07:00:34;59.55;;;30.00;;
44147;SDS011;29810;55.848;37.368;2022-12-10T07:03:35;58.47;;;27.55;;
44147;SDS011;29810;55.848;37.368;2022-12-10T07:06:37;56.85;;;29.30;;
44147;SDS011;29810;55.848;37.368;2022-12-10T07:09:39;58.53;;;29.20;;
44147;SDS011;29810;55.848;37.368;2022-12-10T07:12:41;59.65;;;27.40;;
44147;SDS011;29810;55.848;37.368;2022-12-10T07:15:42;66.22;;;28.73;;
44147;SDS011;29810;55.848;37.368;2022-12-10T07:18:44;61.97;;;28.60;;
44147;SDS011;29810;55.848;37.368;2022-12-10T07:21:46;64.93;;;28.02;;
44147;SDS011;29810;55.848;37.368;2022-12-10T07:24:48;56.35;;;28.92;;
44147;SDS011;29810;55.848;37.368;2022-12-10T07:27:54;65.32;;;28.90;;
44147;SDS011;29810;55.848;37.368;2022-12-10T07:31:08;61.45;;;30.48;;
44147;SDS011;29810;55.848;37.368;2022-12-10T07:34:10;65.03;;;30.05;;
44147;SDS011;29810;55.848;37.368;2022-12-10T07:37:13;58.08;;;29.65;;
44147;SDS011;29810;55.848;37.368;2022-12-10T07:40:16;64.53;;;33.35;;
44147;SDS011;29810;55.848;37.368;2022-12-10T07:43:17;62.75;;;31.52;;
44147;SDS011;29810;55.848;37.368;2022-12-10T07:46:24;64.62;;;30.80;;
44147;SDS011;29810;55.848;37.368;2022-12-10T07:49:28;60.85;;;30.85;;
44147;SDS011;29810;55.848;37.368;2022-12-10T07:52:33;57.42;;;30.60;;
44147;SDS011;29810;55.848;37.368;2022-12-10T07:55:38;60.47;;;31.17;;
44147;SDS011;29810;55.848;37.368;2022-12-10T07:58:41;63.42;;;31.40;;
44147;SDS011;29810;55.848;37.368;2022-12-10T08:01:44;55.90;;;30.70;;
44147;SDS011;29810;55.848;37.368;2022-12-10T08:04:45;61.72;;;30.77;;
44147;SDS011;29810;55.848;37.368;2022-12-10T08:07:47;65.37;;;32.72;;
44147;SDS011;29810;55.848;37.368;2022-12-10T08:10:48;64.15;;;33.75;;
44147;SDS011;29810;55.848;37.368;2022-12-10T08:13:50;62.55;;;33.20;;
44147;SDS011;29810;55.848;37.368;2022-12-10T08:16:52;68.50;;;34.20;;
44147;SDS011;29810;55.848;37.368;2022-12-10T08:19:53;64.57;;;34.58;;
44147;SDS011;29810;55.848;37.368;2022-12-10T08:22:56;62.80;;;34.00;;
44147;SDS011;29810;55.848;37.368;2022-12-10T08:25:57;65.60;;;33.90;;
44147;SDS011;29810;55.848;37.368;2022-12-10T08:28:59;64.82;;;33.83;;
44147;SDS011;29810;55.848;37.368;2022-12-10T08:32:01;62.00;;;32.10;;
44147;SDS011;29810;55.848;37.368;2022-12-10T08:35:03;65.47;;;32.92;;
44147;SDS011;29810;55.848;37.368;2022-12-10T08:38:04;65.75;;;34.53;;
44147;SDS011;29810;55.848;37.368;2022-12-10T08:41:07;62.40;;;33.85;;
44147;SDS011;29810;55.848;37.368;2022-12-10T08:44:10;63.33;;;33.30;;
44147;SDS011;29810;55.848;37.368;2022-12-10T08:47:12;73.95;;;36.22;;
44147;SDS011;29810;55.848;37.368;2022-12-10T08:50:14;66.93;;;32.38;;
44147;SDS011;29810;55.848;37.368;2022-12-10T08:53:15;68.25;;;35.10;;
44147;SDS011;29810;55.848;37.368;2022-12-10T08:56:18;72.95;;;37.35;;
44147;SDS011;29810;55.848;37.368;2022-12-10T08:59:20;77.43;;;35.00;;
44147;SDS011;29810;55.848;37.368;2022-12-10T09:02:21;69.55;;;35.65;;
44147;SDS011;29810;55.848;37.368;2022-12-10T09:05:23;74.15;;;36.63;;
44147;SDS011;29810;55.848;37.368;2022-12-10T09:08:25;85.35;;;37.45;;
44147;SDS011;29810;55.848;37.368;2022-12-10T09:11:28;74.53;;;35.30;;
44147;SDS011;29810;55.848;37.368;2022-12-10T09:14:32;70.47;;;36.67;;
44147;SDS011;29810;55.848;37.368;2022-12-10T09:17:35;86.50;;;37.55;;
44147;SDS011;29810;55.848;37.368;2022-12-10T09:20:39;82.05;;;37.58;;
44147;SDS011;29810;55.848;37.368;2022-12-10T09:23:41;89.07;;;38.10;;
44147;SDS011;29810;55.848;37.368;2022-12-10T09:26:43;80.38;;;38.28;;
44147;SDS011;29810;55.848;37.368;2022-12-10T09:29:45;75.82;;;36.65;;
44147;SDS011;29810;55.848;37.368;2022-12-10T09:32:46;87.25;;;40.00;;
44147;SDS011;29810;55.848;37.368;2022-12-10T09:35:48;92.03;;;44.22;;
44147;SDS011;29810;55.848;37.368;2022-12-10T09:38:49;86.75;;;39.22;;
44147;SDS011;29810;55.848;37.368;2022-12-10T09:52:06;82.65;;;35.70;;
44147;SDS011;29810;55.848;37.368;2022-12-10T09:55:19;87.22;;;39.22;;
44147;SDS011;29810;55.848;37.368;2022-12-10T09:58:27;83.37;;;37.30;;
44147;SDS011;29810;55.848;37.368;2022-12-10T10:01:29;82.45;;;37.38;;
44147;SDS011;29810;55.848;37.368;2022-12-10T10:04:34;84.03;;;35.50;;
44147;SDS011;29810;55.848;37.368;2022-12-10T10:07:43;78.22;;;35.33;;
44147;SDS011;29810;55.848;37.368;2022-12-10T10:10:48;83.60;;;37.65;;
44147;SDS011;29810;55.848;37.368;2022-12-10T10:13:53;93.45;;;36.17;;
44147;SDS011;29810;55.848;37.368;2022-12-10T10:20:04;84.37;;;37.00;;
44147;SDS011;29810;55.848;37.368;2022-12-10T10:23:07;79.82;;;35.35;;
44147;SDS011;29810;55.848;37.368;2022-12-10T10:26:13;86.70;;;37.97;;
44147;SDS011;29810;55.848;37.368;2022-12-10T10:29:18;87.68;;;38.92;;
44147;SDS011;29810;55.848;37.368;2022-12-10T10:32:26;88.43;;;37.28;;
44147;SDS011;29810;55.848;37.368;2022-12-10T10:35:55;86.57;;;37.40;;
44147;SDS011;29810;55.848;37.368;2022-12-10T10:42:41;87.28;;;38.70;;
44147;SDS011;29810;55.848;37.368;2022-12-10T10:45:43;90.50;;;38.25;;
44147;SDS011;29810;55.848;37.368;2022-12-10T10:48:50;89.60;;;38.33;;
44147;SDS011;29810;55.848;37.368;2022-12-10T10:51:53;94.90;;;39.75;;
44147;SDS011;29810;55.848;37.368;2022-12-10T10:54:59;95.93;;;43.03;;
44147;SDS011;29810;55.848;37.368;2022-12-10T10:58:00;105.10;;;41.70;;
44147;SDS011;29810;55.848;37.368;2022-12-10T11:01:06;91.00;;;38.47;;
44147;SDS011;29810;55.848;37.368;2022-12-10T11:10:35;85.50;;;35.80;;
44147;SDS011;29810;55.848;37.368;2022-12-10T11:13:39;90.87;;;37.53;;
44147;SDS011;29810;55.848;37.368;2022-12-10T11:16:41;84.62;;;35.60;;
44147;SDS011;29810;55.848;37.368;2022-12-10T11:20:29;85.05;;;36.65;;
44147;SDS011;29810;55.848;37.368;2022-12-10T11:23:22;77.37;;;34.90;;
44147;SDS011;29810;55.848;37.368;2022-12-10T11:30:04;80.60;;;34.00;;
44147;SDS011;29810;55.848;37.368;2022-12-10T11:33:21;73.07;;;34.20;;
44147;SDS011;29810;55.848;37.368;2022-12-10T11:40:01;75.93;;;34.22;;
44147;SDS011;29810;55.848;37.368;2022-12-10T11:50:52;73.50;;;32.95;;
44147;SDS011;29810;55.848;37.368;2022-12-10T12:01:12;76.93;;;31.08;;
44147;SDS011;29810;55.848;37.368;2022-12-10T12:17:16;78.53;;;32.13;;
44147;SDS011;29810;55.848;37.368;2022-12-10T12:23:40;68.82;;;29.92;;
44147;SDS011;29810;55.848;37.368;2022-12-10T12:26:54;69.72;;;31.55;;
44147;SDS011;29810;55.848;37.368;2022-12-10T12:33:16;71.45;;;30.15;;
44147;SDS011;29810;55.848;37.368;2022-12-10T12:36:29;67.55;;;31.37;;
44147;SDS011;29810;55.848;37.368;2022-12-10T12:39:52;72.47;;;31.48;;
44147;SDS011;29810;55.848;37.368;2022-12-10T12:43:17;67.95;;;31.85;;
44147;SDS011;29810;55.848;37.368;2022-12-10T12:46:30;71.40;;;31.90;;
44147;SDS011;29810;55.848;37.368;2022-12-10T12:49:39;72.45;;;31.77;;
44147;SDS011;29810;55.848;37.368;2022-12-10T12:52:44;67.32;;;31.00;;
44147;SDS011;29810;55.848;37.368;2022-12-10T12:55:57;74.53;;;31.73;;
44147;SDS011;29810;55.848;37.368;2022-12-10T13:05:51;76.03;;;32.90;;
44147;SDS011;29810;55.848;37.368;2022-12-10T13:12:17;73.50;;;31.23;;
44147;SDS011;29810;55.848;37.368;2022-12-10T13:15:37;70.53;;;29.60;;
44147;SDS011;29810;55.848;37.368;2022-12-10T13:18:40;75.93;;;31.12;;
44147;SDS011;29810;55.848;37.368;2022-12-10T13:25:04;75.47;;;31.98;;
44147;SDS011;29810;55.848;37.368;2022-12-10T13:31:41;75.40;;;29.67;;
44147;SDS011;29810;55.848;37.368;2022-12-10T13:38:18;71.78;;;31.10;;
44147;SDS011;29810;55.848;37.368;2022-12-10T13:41:23;59.53;;;29.37;;
44147;SDS011;29810;55.848;37.368;2022-12-10T13:44:58;58.22;;;25.83;;
44147;SDS011;29810;55.848;37.368;2022-12-10T13:51:46;89.70;;;45.90;;
44147;SDS011;29810;55.848;37.368;2022-12-10T13:58:21;66.22;;;29.45;;
44147;SDS011;29810;55.848;37.368;2022-12-10T14:08:47;66.65;;;29.52;;
44147;SDS011;29810;55.848;37.368;2022-12-10T14:12:13;71.65;;;30.48;;
44147;SDS011;29810;55.848;37.368;2022-12-10T14:15:22;75.30;;;31.42;;
44147;SDS011;29810;55.848;37.368;2022-12-10T14:18:26;75.40;;;31.77;;
44147;SDS011;29810;55.848;37.368;2022-12-10T14:21:34;71.68;;;29.95;;
44147;SDS011;29810;55.848;37.368;2022-12-10T14:24:40;76.10;;;30.83;;
44147;SDS011;29810;55.848;37.368;2022-12-10T14:27:46;63.15;;;27.92;;
44147;SDS011;29810;55.848;37.368;2022-12-10T14:30:49;65.53;;;27.60;;
44147;SDS011;29810;55.848;37.368;2022-12-10T14:33:51;58.95;;;27.35;;
44147;SDS011;29810;55.848;37.368;2022-12-10T14:36:57;67.50;;;27.92;;
44147;SDS011;29810;55.848;37.368;2022-12-10T14:40:06;61.45;;;27.50;;
44147;SDS011;29810;55.848;37.368;2022-12-10T14:43:13;60.95;;;27.35;;
44147;SDS011;29810;55.848;37.368;2022-12-10T14:46:20;53.10;;;24.63;;
44147;SDS011;29810;55.848;37.368;2022-12-10T14:49:26;53.30;;;25.52;;
44147;SDS011;29810;55.848;37.368;2022-12-10T14:52:32;54.42;;;23.70;;
44147;SDS011;29810;55.848;37.368;2022-12-10T14:55:36;56.95;;;27.33;;
44147;SDS011;29810;55.848;37.368;2022-12-10T14:58:43;85.75;;;42.17;;
44147;SDS011;29810;55.848;37.368;2022-12-10T15:01:51;75.18;;;37.60;;
44147;SDS011;29810;55.848;37.368;2022-12-10T15:04:57;75.75;;;35.13;;
44147;SDS011;29810;55.848;37.368;2022-12-10T15:08:02;62.03;;;28.30;;
44147;SDS011;29810;55.848;37.368;2022-12-10T15:11:06;55.38;;;26.25;;
44147;SDS011;29810;55.848;37.368;2022-12-10T15:14:10;69.07;;;33.50;;
44147;SDS011;29810;55.848;37.368;2022-12-10T15:17:39;56.22;;;25.67;;
44147;SDS011;29810;55.848;37.368;2022-12-10T15:20:59;70.18;;;32.30;;
44147;SDS011;29810;55.848;37.368;2022-12-10T15:24:13;57.45;;;25.08;;
44147;SDS011;29810;55.848;37.368;2022-12-10T15:27:23;62.53;;;28.20;;
44147;SDS011;29810;55.848;37.368;2022-12-10T15:30:34;55.00;;;25.55;;
44147;SDS011;29810;55.848;37.368;2022-12-10T15:33:41;56.10;;;24.23;;
44147;SDS011;29810;55.848;37.368;2022-12-10T15:37:18;60.40;;;25.83;;
44147;SDS011;29810;55.848;37.368;2022-12-10T15:40:28;58.83;;;25.88;;
44147;SDS011;29810;55.848;37.368;2022-12-10T15:43:31;52.53;;;24.63;;
44147;SDS011;29810;55.848;37.368;2022-12-10T15:46:33;57.03;;;26.20;;
44147;SDS011;29810;55.848;37.368;2022-12-10T15:49:49;57.50;;;26.37;;
44147;SDS011;29810;55.848;37.368;2022-12-10T15:52:52;57.13;;;26.25;;
44147;SDS011;29810;55.848;37.368;2022-12-10T15:55:54;58.38;;;26.90;;
44147;SDS011;29810;55.848;37.368;2022-12-10T15:58:56;57.40;;;28.95;;
44147;SDS011;29810;55.848;37.368;2022-12-10T16:05:43;63.92;;;30.90;;
44147;SDS011;29810;55.848;37.368;2022-12-10T16:08:47;53.05;;;26.87;;
44147;SDS011;29810;55.848;37.368;2022-12-10T16:12:06;63.70;;;31.25;;
44147;SDS011;29810;55.848;37.368;2022-12-10T16:19:08;64.20;;;33.53;;
44147;SDS011;29810;55.848;37.368;2022-12-10T16:22:15;73.75;;;34.30;;
44147;SDS011;29810;55.848;37.368;2022-12-10T16:25:46;60.67;;;27.45;;
44147;SDS011;29810;55.848;37.368;2022-12-10T16:28:48;73.65;;;36.95;;
44147;SDS011;29810;55.848;37.368;2022-12-10T16:31:51;73.43;;;36.40;;
44147;SDS011;29810;55.848;37.368;2022-12-10T16:34:53;63.92;;;32.33;;
44147;SDS011;29810;55.848;37.368;2022-12-10T16:37:55;60.40;;;29.08;;
44147;SDS011;29810;55.848;37.368;2022-12-10T16:40:57;55.92;;;29.05;;
44147;SDS011;29810;55.848;37.368;2022-12-10T16:44:14;63.00;;;31.87;;
44147;SDS011;29810;55.848;37.368;2022-12-10T16:47:55;64.53;;;34.38;;
44147;SDS011;29810;55.848;37.368;2022-12-10T16:50:57;57.95;;;29.30;;
44147;SDS011;29810;55.848;37.368;2022-12-10T16:54:44;61.78;;;31.12;;
44147;SDS011;29810;55.848;37.368;2022-12-10T16:57:46;58.95;;;30.73;;
44147;SDS011;29810;55.848;37.368;2022-12-10T17:00:50;54.17;;;27.83;;
44147;SDS011;29810;55.848;37.368;2022-12-10T17:04:27;67.37;;;38.80;;
44147;SDS011;29810;55.848;37.368;2022-12-10T17:07:29;54.17;;;27.80;;
44147;SDS011;29810;55.848;37.368;2022-12-10T17:10:31;61.53;;;32.45;;
44147;SDS011;29810;55.848;37.368;2022-12-10T17:13:51;57.75;;;32.50;;
44147;SDS011;29810;55.848;37.368;2022-12-10T17:16:53;51.60;;;26.77;;
44147;SDS011;29810;55.848;37.368;2022-12-10T17:19:58;53.33;;;27.05;;
44147;SDS011;29810;55.848;37.368;2022-12-10T17:23:00;51.83;;;27.77;;
44147;SDS011;29810;55.848;37.368;2022-12-10T17:29:45;47.70;;;27.37;;
44147;SDS011;29810;55.848;37.368;2022-12-10T17:32:53;43.13;;;24.85;;
44147;SDS011;29810;55.848;37.368;2022-12-10T17:35:55;58.17;;;32.10;;
44147;SDS011;29810;55.848;37.368;2022-12-10T17:38:57;42.30;;;23.20;;
44147;SDS011;29810;55.848;37.368;2022-12-10T17:41:58;52.05;;;29.80;;
44147;SDS011;29810;55.848;37.368;2022-12-10T17:45:00;44.75;;;23.92;;
44147;SDS011;29810;55.848;37.368;2022-12-10T17:48:06;47.00;;;28.67;;
44147;SDS011;29810;55.848;37.368;2022-12-10T17:51:28;48.87;;;29.77;;
44147;SDS011;29810;55.848;37.368;2022-12-10T17:54:30;48.65;;;28.92;;
44147;SDS011;29810;55.848;37.368;2022-12-10T17:57:32;49.33;;;26.73;;
44147;SDS011;29810;55.848;37.368;2022-12-10T18:00:34;49.17;;;31.42;;
44147;SDS011;29810;55.848;37.368;2022-12-10T18:03:37;39.83;;;21.98;;
44147;SDS011;29810;55.848;37.368;2022-12-10T18:06:39;42.47;;;24.60;;
44147;SDS011;29810;55.848;37.368;2022-12-10T18:09:41;34.15;;;21.48;;
44147;SDS011;29810;55.848;37.368;2022-12-10T18:12:43;47.42;;;29.12;;
44147;SDS011;29810;55.848;37.368;2022-12-10T18:15:45;38.53;;;23.08;;
44147;SDS011;29810;55.848;37.368;2022-12-10T18:18:47;38.80;;;22.25;;
44147;SDS011;29810;55.848;37.368;2022-12-10T18:21:52;38.25;;;21.50;;
44147;SDS011;29810;55.848;37.368;2022-12-10T18:24:58;42.88;;;24.60;;
44147;SDS011;29810;55.848;37.368;2022-12-10T18:28:01;41.58;;;23.87;;
44147;SDS011;29810;55.848;37.368;2022-12-10T18:31:14;37.05;;;20.58;;
44147;SDS011;29810;55.848;37.368;2022-12-10T18:34:22;35.50;;;20.67;;
44147;SDS011;29810;55.848;37.368;2022-12-10T18:37:23;33.40;;;20.40;;
44147;SDS011;29810;55.848;37.368;2022-12-10T18:40:25;31.25;;;20.92;;
44147;SDS011;29810;55.848;37.368;2022-12-10T18:43:26;31.85;;;19.70;;
44147;SDS011;29810;55.848;37.368;2022-12-10T18:46:28;31.10;;;19.10;;
44147;SDS011;29810;55.848;37.368;2022-12-10T18:49:32;34.05;;;19.55;;
44147;SDS011;29810;55.848;37.368;2022-12-10T18:52:34;30.15;;;18.85;;
44147;SDS011;29810;55.848;37.368;2022-12-10T18:55:35;31.73;;;20.02;;
44147;SDS011;29810;55.848;37.368;2022-12-10T18:58:37;28.30;;;17.95;;
44147;SDS011;29810;55.848;37.368;2022-12-10T19:01:38;27.80;;;18.02;;
44147;SDS011;29810;55.848;37.368;2022-12-10T19:04:40;29.90;;;21.33;;
44147;SDS011;29810;55.848;37.368;2022-12-10T19:07:43;27.73;;;18.10;;
44147;SDS011;29810;55.848;37.368;2022-12-10T19:10:48;28.85;;;18.55;;
44147;SDS011;29810;55.848;37.368;2022-12-10T19:13:50;33.25;;;22.25;;
44147;SDS011;29810;55.848;37.368;2022-12-10T19:17:02;29.63;;;17.75;;
44147;SDS011;29810;55.848;37.368;2022-12-10T19:20:27;25.48;;;16.35;;
44147;SDS011;29810;55.848;37.368;2022-12-10T19:23:30;28.48;;;18.45;;
44147;SDS011;29810;55.848;37.368;2022-12-10T19:26:32;26.40;;;17.55;;
44147;SDS011;29810;55.848;37.368;2022-12-10T19:29:36;28.17;;;18.23;;
44147;SDS011;29810;55.848;37.368;2022-12-10T19:32:55;27.77;;;18.95;;
44147;SDS011;29810;55.848;37.368;2022-12-10T19:36:17;22.48;;;15.63;;
44147;SDS011;29810;55.848;37.368;2022-12-10T19:39:21;31.35;;;19.30;;
44147;SDS011;29810;55.848;37.368;2022-12-10T19:42:24;27.75;;;18.95;;
44147;SDS011;29810;55.848;37.368;2022-12-10T19:45:27;25.75;;;16.33;;
44147;SDS011;29810;55.848;37.368;2022-12-10T19:48:30;23.40;;;15.60;;
44147;SDS011;29810;55.848;37.368;2022-12-10T19:51:31;22.15;;;15.80;;
44147;SDS011;29810;55.848;37.368;2022-12-10T19:54:33;28.45;;;19.65;;
44147;SDS011;29810;55.848;37.368;2022-12-10T19:57:34;22.90;;;16.62;;
44147;SDS011;29810;55.848;37.368;2022-12-10T20:00:37;22.17;;;15.30;;